Terminal Aerodrome Forecast
Issued by NWS

Current Version | Previous Version | Text Only | Print | Product List | Glossary On
Versions: 1 2 3 4 5 6 7 8 9 10 11 12 13 14 15 16 17 18 19 20
000 FTUS42 KRAH 232021 AAB TAFINT TAF AMD KINT 232021Z 2320/2418 14014G28KT 3SM -SHRA BR BKN012 TEMPO 2321/2324 23020G40KT 1SM TSRA OVC005CB FM240200 21009KT P6SM BKN080 FM240900 24003KT 3SM BR BKN003 FM241300 24005KT P6SM SKC=

USA.gov is the U.S. government's official web portal to all federal, state and local government web resources and services.